Time;durP1;ratioP1;P1;durP2;ratioP2;P2;SDS_P1;SDS_P2;PMS_P1;PMS_P2;Temp;Humidity;BMP_temperature;BMP_pressure;BME280_temperature;BME280_humidity;BME280_pressure;Samples;Min_cycle;Max_cycle;Signal;HPM_P1;HPM_P2
2022/11/18 00:00:02;;;;;;;382.70;148.68;;;;;;;9.70;100.00;98564.41;299948;32;5335;-75
2022/11/18 00:00:13;;;;;;;384.08;150.32;;;;;;;9.70;100.00;98567.03;299820;32;2526;-75
2022/11/18 00:00:24;;;;;;;381.23;152.77;;;;;;;9.69;100.00;98574.03;298235;33;889;-75
2022/11/18 00:00:34;;;;;;;377.35;152.05;;;;;;;9.68;100.00;98573.19;294059;33;1253;-74
2022/11/18 00:00:44;;;;;;;378.38;150.90;;;;;;;9.69;100.00;98568.78;293950;33;4354;-75
2022/11/18 00:00:55;;;;;;;380.83;150.33;;;;;;;9.68;100.00;98567.94;291540;33;4901;-74
2022/11/18 00:01:10;;;;;;;382.35;153.90;;;;;;;9.68;100.00;98573.19;292760;33;5864;-75
2022/11/18 00:01:21;;;;;;;381.45;154.25;;;;;;;9.71;100.00;98571.31;294186;33;989;-75
2022/11/18 00:01:31;;;;;;;378.35;154.75;;;;;;;9.71;100.00;98571.31;289840;33;6625;-74
2022/11/18 00:01:42;;;;;;;378.83;154.07;;;;;;;9.72;100.00;98575.63;288798;33;6503;-75
2022/11/18 00:01:52;;;;;;;372.00;153.07;;;;;;;9.73;100.00;98569.47;292631;33;2014;-74
2022/11/18 00:02:03;;;;;;;377.23;154.83;;;;;;;9.74;100.00;98573.78;290124;33;6796;-74
2022/11/18 00:02:13;;;;;;;376.88;153.93;;;;;;;9.73;100.00;98574.69;291698;33;7717;-75
2022/11/18 00:02:23;;;;;;;380.40;155.87;;;;;;;9.73;100.00;98575.53;292143;33;2297;-75
2022/11/18 00:02:34;;;;;;;376.80;152.15;;;;;;;9.73;100.00;98569.47;288081;34;3912;-75
2022/11/18 00:02:44;;;;;;;378.80;154.90;;;;;;;9.72;100.00;98568.63;289974;33;4522;-75
2022/11/18 00:02:54;;;;;;;380.33;153.93;;;;;;;9.73;100.00;98579.94;288997;34;6008;-74
2022/11/18 00:03:05;;;;;;;378.83;153.53;;;;;;;9.73;100.00;98569.47;285786;34;2006;-74
2022/11/18 00:03:15;;;;;;;376.43;153.33;;;;;;;9.74;100.00;98571.16;284322;34;8135;-74
2022/11/18 00:03:26;;;;;;;376.38;151.77;;;;;;;9.73;100.00;98577.31;282915;34;8971;-74
2022/11/18 00:03:37;;;;;;;381.38;153.98;;;;;;;9.74;100.00;98576.38;283752;34;1013;-75
2022/11/18 00:05:17;;;;;;;374.74;139.46;;;;;;;9.73;100.00;98569.47;2494607;27;20494;-77
2022/11/18 00:05:27;;;;;;;388.67;151.60;;;;;;;9.70;100.00;98567.03;352522;28;1632;-75
2022/11/18 00:05:37;;;;;;;388.05;153.00;;;;;;;9.68;100.00;98570.56;351871;28;878;-74
2022/11/18 00:05:54;;;;;;;384.27;154.53;;;;;;;9.68;100.00;98567.94;349567;28;1287;-75
2022/11/18 00:06:05;;;;;;;377.40;152.45;;;;;;;9.66;100.00;98569.81;349365;28;2297;-76
2022/11/18 00:06:20;;;;;;;379.80;154.57;;;;;;;9.66;100.00;98572.41;345578;28;5657;-74
2022/11/18 00:06:31;;;;;;;385.73;155.90;;;;;;;9.66;100.00;98566.34;346244;28;1896;-75
2022/11/18 00:06:41;;;;;;;388.85;153.65;;;;;;;9.65;100.00;98568.13;350847;28;2262;-74
2022/11/18 00:06:51;;;;;;;386.40;155.67;;;;;;;9.65;100.00;98572.50;349094;28;3480;-75
2022/11/18 00:07:03;;;;;;;380.75;154.05;;;;;;;9.63;100.00;98574.34;348097;28;1977;-74
2022/11/18 00:07:13;;;;;;;378.95;156.43;;;;;;;9.63;100.00;98564.75;349958;28;1817;-75
2022/11/18 00:07:25;;;;;;;375.10;153.60;;;;;;;9.63;100.00;98564.75;349304;28;1103;-75
2022/11/18 00:07:35;;;;;;;375.50;151.23;;;;;;;9.63;100.00;98567.34;346349;28;920;-75
2022/11/18 00:07:45;;;;;;;377.95;148.98;;;;;;;9.62;100.00;98565.66;346864;28;1809;-74
2022/11/18 00:07:56;;;;;;;380.43;151.10;;;;;;;9.63;100.00;98569.97;348418;28;1479;-74
2022/11/18 00:08:06;;;;;;;379.37;150.40;;;;;;;9.62;100.00;98573.50;348807;28;2018;-74
2022/11/18 00:08:17;;;;;;;374.52;149.15;;;;;;;9.64;100.00;98568.19;349312;28;1867;-75
2022/11/18 00:08:27;;;;;;;373.87;147.63;;;;;;;9.63;100.00;98567.34;348669;28;2003;-75
2022/11/18 00:08:37;;;;;;;376.23;148.38;;;;;;;9.63;100.00;98569.97;347631;28;888;-75
2022/11/18 00:08:48;;;;;;;377.23;151.60;;;;;;;9.64;100.00;98565.59;346255;28;1196;-75
2022/11/18 00:09:00;;;;;;;374.13;149.65;;;;;;;9.64;100.00;98568.19;345999;28;846;-75
2022/11/18 00:09:10;;;;;;;375.48;148.55;;;;;;;9.63;100.00;98569.13;346099;28;1447;-75
2022/11/18 00:09:20;;;;;;;383.80;148.48;;;;;;;9.60;100.00;98562.28;344123;28;1851;-74
2022/11/18 00:09:31;;;;;;;393.70;150.30;;;;;;;9.60;100.00;98564.06;344629;28;1760;-73
2022/11/18 00:09:41;;;;;;;395.75;151.45;;;;;;;9.61;100.00;98566.59;345147;28;1083;-75
2022/11/18 00:09:51;;;;;;;388.07;150.17;;;;;;;9.61;100.00;98566.59;344997;28;1290;-76
2022/11/18 00:10:02;;;;;;;387.65;153.50;;;;;;;9.60;100.00;98562.28;346313;28;1103;-75
2022/11/18 00:10:12;;;;;;;385.63;153.57;;;;;;;9.62;100.00;98563.06;344929;28;920;-76
2022/11/18 00:10:23;;;;;;;389.88;154.73;;;;;;;9.62;100.00;98562.22;344421;28;1837;-75
2022/11/18 00:10:37;;;;;;;382.90;149.00;;;;;;;9.60;100.00;98559.69;346649;28;2205;-75
2022/11/18 00:10:47;;;;;;;383.20;150.00;;;;;;;9.60;100.00;98557.06;346181;28;1029;-75
2022/11/18 00:10:58;;;;;;;384.58;153.82;;;;;;;9.60;100.00;98570.13;347104;28;1400;-75
2022/11/18 00:11:10;;;;;;;384.80;154.90;;;;;;;9.62;100.00;98563.06;346945;28;1904;-74
2022/11/18 00:14:23;;;;;;;379.02;149.35;;;;;;;9.62;100.00;98564.81;330700;29;829;-75
2022/11/18 00:14:34;;;;;;;371.33;146.82;;;;;;;9.60;100.00;98559.69;328826;30;1494;-74
2022/11/18 00:14:45;;;;;;;374.67;149.43;;;;;;;9.61;100.00;98566.59;331515;29;984;-75
2022/11/18 00:14:55;;;;;;;378.50;151.43;;;;;;;9.60;100.00;98562.28;331365;29;1527;-75
2022/11/18 00:15:06;;;;;;;379.87;151.77;;;;;;;9.60;100.00;98569.28;328939;29;1644;-75
2022/11/18 00:15:16;;;;;;;378.70;151.98;;;;;;;9.60;100.00;98564.06;325625;30;1676;-75
2022/11/18 00:15:27;;;;;;;378.70;152.00;;;;;;;9.59;100.00;98563.22;322966;30;2038;-75
2022/11/18 00:15:37;;;;;;;376.08;152.60;;;;;;;9.59;100.00;98562.38;323082;29;1861;-75
2022/11/18 00:15:48;;;;;;;378.53;152.33;;;;;;;9.58;100.00;98566.75;326959;30;857;-75
2022/11/18 00:16:06;;;;;;;389.83;154.70;;;;;;;9.59;100.00;98567.59;326404;30;1898;-75
2022/11/18 00:16:16;;;;;;;389.13;153.13;;;;;;;9.60;100.00;98564.91;322163;30;1717;-75
2022/11/18 00:16:27;;;;;;;381.63;149.77;;;;;;;9.61;100.00;98565.75;317319;31;1537;-75
2022/11/18 00:16:37;;;;;;;386.60;150.27;;;;;;;9.61;100.00;98566.59;321652;30;2008;-74
2022/11/18 00:16:49;;;;;;;395.13;150.03;;;;;;;9.62;100.00;98568.28;322426;30;5165;-75
2022/11/18 00:17:00;;;;;;;395.83;154.35;;;;;;;9.62;100.00;98564.81;322524;30;3148;-74
2022/11/18 00:17:11;;;;;;;401.48;158.00;;;;;;;9.60;100.00;98570.13;320019;30;1797;-76
2022/11/18 00:17:22;;;;;;;398.90;160.73;;;;;;;9.60;100.00;98571.91;318034;30;3080;-75
2022/11/18 00:17:32;;;;;;;389.30;159.93;;;;;;;9.60;100.00;98570.13;317535;31;862;-75
2022/11/18 00:17:43;;;;;;;377.67;156.40;;;;;;;9.61;100.00;98570.97;318044;30;2468;-75
2022/11/18 00:17:53;;;;;;;375.27;153.80;;;;;;;9.60;100.00;98575.34;317078;30;2544;-76
2022/11/18 00:18:03;;;;;;;380.13;151.43;;;;;;;9.59;100.00;98568.44;315291;31;1937;-76
2022/11/18 00:18:14;;;;;;;384.50;155.20;;;;;;;9.60;100.00;98571.91;316660;30;2696;-75
2022/11/18 00:18:25;;;;;;;385.23;151.57;;;;;;;9.58;100.00;98571.97;316013;31;2625;-76
2022/11/18 00:18:36;;;;;;;403.70;152.43;;;;;;;9.58;100.00;98573.75;312049;31;1551;-76
2022/11/18 00:18:47;;;;;;;404.17;152.30;;;;;;;9.56;100.00;98572.97;311942;31;792;-76
2022/11/18 00:18:57;;;;;;;414.07;155.43;;;;;;;9.54;100.00;98569.59;312182;31;2067;-75
2022/11/18 00:19:07;;;;;;;410.92;155.90;;;;;;;9.53;100.00;98571.38;313042;31;1506;-75
2022/11/18 00:19:19;;;;;;;405.03;154.13;;;;;;;9.54;100.00;98575.69;309574;31;1927;-76
2022/11/18 00:19:34;;;;;;;393.65;153.30;;;;;;;9.54;100.00;98575.69;308224;32;2424;-75
2022/11/18 00:19:45;;;;;;;386.98;149.82;;;;;;;9.53;100.00;98570.56;309039;31;3179;-75
2022/11/18 00:19:55;;;;;;;385.95;152.25;;;;;;;9.54;100.00;98565.22;308265;31;3065;-75
2022/11/18 00:20:07;;;;;;;385.77;155.63;;;;;;;9.54;100.00;98572.22;305506;32;3046;-75
2022/11/18 00:20:18;;;;;;;382.30;155.18;;;;;;;9.54;100.00;98574.84;307450;32;1002;-75
2022/11/18 00:20:28;;;;;;;380.15;151.93;;;;;;;9.54;100.00;98573.06;306015;32;3340;-75
2022/11/18 00:20:38;;;;;;;383.53;154.73;;;;;;;9.54;100.00;98573.06;304526;32;3491;-75
2022/11/18 00:20:49;;;;;;;384.27;153.75;;;;;;;9.54;100.00;98575.69;304382;32;888;-75
2022/11/18 00:21:01;;;;;;;380.77;152.97;;;;;;;9.55;100.00;98574.75;300230;32;2005;-74
2022/11/18 00:21:11;;;;;;;380.05;155.18;;;;;;;9.55;100.00;98572.13;297789;32;1919;-74
2022/11/18 00:21:21;;;;;;;380.40;155.87;;;;;;;9.55;100.00;98572.13;296613;32;2090;-75
2022/11/18 00:21:32;;;;;;;382.85;157.38;;;;;;;9.56;100.00;98576.44;297036;33;1315;-75
2022/11/18 00:21:42;;;;;;;383.30;159.90;;;;;;;9.57;100.00;98572.06;298157;32;3234;-74
2022/11/18 00:21:53;;;;;;;387.77;161.60;;;;;;;9.57;100.00;98580.75;297089;32;4769;-75
2022/11/18 00:22:04;;;;;;;387.33;162.17;;;;;;;9.58;100.00;98577.19;295886;33;2456;-73
2022/11/18 00:22:14;;;;;;;386.70;160.23;;;;;;;9.58;100.00;98577.19;292288;33;5347;-74
2022/11/18 00:22:25;;;;;;;387.10;159.07;;;;;;;9.58;100.00;98577.19;291663;33;5284;-75
2022/11/18 00:22:35;;;;;;;392.67;159.43;;;;;;;9.58;100.00;98571.97;292024;33;2251;-75
2022/11/18 00:22:46;;;;;;;389.47;159.10;;;;;;;9.60;100.00;98574.50;286173;34;5894;-74
2022/11/18 00:22:56;;;;;;;385.42;157.38;;;;;;;9.60;100.00;98575.34;286461;34;4533;-74
2022/11/18 00:23:07;;;;;;;380.00;156.70;;;;;;;9.60;100.00;98572.75;286476;34;2816;-74
2022/11/18 00:23:17;;;;;;;379.87;156.53;;;;;;;9.62;100.00;98578.72;283471;34;2002;-74
2022/11/18 00:23:28;;;;;;;381.53;159.17;;;;;;;9.62;100.00;98573.50;285541;34;3276;-75
2022/11/18 00:23:39;;;;;;;381.67;155.77;;;;;;;9.63;100.00;98576.97;286280;34;3069;-75
2022/11/18 00:23:49;;;;;;;380.90;154.13;;;;;;;9.64;100.00;98576.88;284642;34;958;-76
2022/11/18 00:24:00;;;;;;;379.75;154.55;;;;;;;9.64;100.00;98576.88;282622;34;5173;-75
2022/11/18 00:24:10;;;;;;;380.93;158.93;;;;;;;9.64;100.00;98579.50;281938;34;7354;-75
2022/11/18 00:24:21;;;;;;;381.90;159.83;;;;;;;9.63;100.00;98575.19;278332;35;4478;-74
2022/11/18 00:24:31;;;;;;;383.95;156.98;;;;;;;9.62;100.00;98573.50;274620;35;2136;-74
2022/11/18 00:24:41;;;;;;;383.60;156.07;;;;;;;9.62;100.00;98573.50;273133;35;6235;-74
2022/11/18 00:24:52;;;;;;;382.77;154.35;;;;;;;9.60;100.00;98577.13;274229;35;7582;-74
2022/11/18 00:25:02;;;;;;;377.90;152.63;;;;;;;9.59;100.00;98578.88;277613;35;988;-75
2022/11/18 00:25:12;;;;;;;380.63;148.48;;;;;;;9.58;100.00;98573.75;275647;35;6695;-74
2022/11/18 00:25:23;;;;;;;399.70;152.90;;;;;;;9.55;100.00;98577.38;273418;35;4037;-75
2022/11/18 00:25:33;;;;;;;410.40;155.40;;;;;;;9.53;100.00;98571.38;272296;36;2065;-75
2022/11/18 00:25:45;;;;;;;414.27;158.80;;;;;;;9.53;100.00;98571.38;269046;36;5098;-75
2022/11/18 00:26:02;;;;;;;405.38;157.70;;;;;;;9.53;100.00;98579.22;267669;36;5397;-75
2022/11/18 00:26:13;;;;;;;394.77;156.63;;;;;;;9.53;100.00;98571.38;265753;36;7493;-74
2022/11/18 00:28:15;;;;;;;361.92;142.14;;;;;;;9.59;100.00;98572.81;2487483;27;20262;-75
2022/11/18 00:28:25;;;;;;;375.80;149.97;;;;;;;9.59;100.00;98573.66;352682;28;1842;-75
2022/11/18 00:28:35;;;;;;;376.00;151.75;;;;;;;9.61;100.00;98571.81;351647;28;1811;-74
2022/11/18 00:28:46;;;;;;;373.40;150.90;;;;;;;9.61;100.00;98570.97;350188;28;981;-75
2022/11/18 00:28:56;;;;;;;375.42;150.63;;;;;;;9.60;100.00;98575.34;349026;28;1388;-76
2022/11/18 00:29:09;;;;;;;376.53;149.67;;;;;;;9.59;100.00;98568.44;347813;28;2124;-75
2022/11/18 00:29:19;;;;;;;385.80;149.50;;;;;;;9.60;100.00;98572.75;348972;28;907;-76
2022/11/18 00:29:30;;;;;;;383.93;147.37;;;;;;;9.59;100.00;98572.81;350469;28;1226;-75
2022/11/18 00:29:41;;;;;;;379.45;146.88;;;;;;;9.59;100.00;98572.81;349157;28;1966;-73
2022/11/18 00:29:52;;;;;;;372.75;147.80;;;;;;;9.59;100.00;98573.66;348182;28;1261;-73
2022/11/18 00:30:02;;;;;;;371.63;149.20;;;;;;;9.59;100.00;98573.66;350427;28;880;-73
2022/11/18 00:30:13;;;;;;;374.17;152.60;;;;;;;9.58;100.00;98571.13;351644;28;1675;-73
2022/11/18 00:30:23;;;;;;;377.83;152.43;;;;;;;9.56;100.00;98568.59;350243;28;1227;-74
2022/11/18 00:30:34;;;;;;;389.92;153.95;;;;;;;9.58;100.00;98565.91;350374;28;917;-74
2022/11/18 00:30:44;;;;;;;386.67;151.13;;;;;;;9.57;100.00;98570.28;348654;28;1190;-74
2022/11/18 00:31:06;;;;;;;384.43;152.20;;;;;;;9.59;100.00;98567.59;348732;28;1601;-73
2022/11/18 00:31:16;;;;;;;369.42;148.50;;;;;;;9.59;100.00;98568.44;350314;28;1903;-74
2022/11/18 00:31:27;;;;;;;370.05;148.63;;;;;;;9.59;100.00;98571.06;350376;28;919;-74
2022/11/18 00:31:37;;;;;;;375.27;151.30;;;;;;;9.58;100.00;98571.13;348948;28;908;-74
2022/11/18 00:31:48;;;;;;;379.48;150.43;;;;;;;9.58;100.00;98568.53;348970;28;1771;-74
2022/11/18 00:31:58;;;;;;;382.47;153.23;;;;;;;9.58;100.00;98569.38;348007;28;1903;-75
2022/11/18 00:32:09;;;;;;;379.80;153.67;;;;;;;9.59;100.00;98568.44;348066;28;1378;-74
2022/11/18 00:32:19;;;;;;;376.43;154.73;;;;;;;9.59;100.00;98578.88;346319;28;884;-74
2022/11/18 00:32:29;;;;;;;374.27;153.73;;;;;;;9.58;100.00;98571.13;348117;28;1453;-74
2022/11/18 00:32:40;;;;;;;375.53;152.93;;;;;;;9.58;100.00;98569.38;346122;28;1600;-74
2022/11/18 00:32:50;;;;;;;375.05;151.30;;;;;;;9.58;100.00;98571.97;346309;28;1004;-74
2022/11/18 00:33:01;;;;;;;374.87;150.23;;;;;;;9.58;100.00;98571.97;346710;28;2010;-74
2022/11/18 00:33:11;;;;;;;372.42;150.50;;;;;;;9.57;100.00;98570.28;346316;28;999;-76
2022/11/18 00:33:22;;;;;;;373.03;152.83;;;;;;;9.57;100.00;98574.66;344876;28;1284;-74
2022/11/18 00:33:32;;;;;;;372.45;152.70;;;;;;;9.57;100.00;98570.28;346224;28;1425;-74
2022/11/18 00:33:42;;;;;;;373.53;152.27;;;;;;;9.58;100.00;98571.13;344629;28;1450;-74
2022/11/18 00:33:53;;;;;;;392.80;151.05;;;;;;;9.57;100.00;98575.50;343435;28;844;-75
2022/11/18 00:34:03;;;;;;;389.23;148.73;;;;;;;9.58;100.00;98577.19;343301;28;1177;-73
2022/11/18 00:34:15;;;;;;;389.52;145.98;;;;;;;9.56;100.00;98571.22;340162;29;1486;-74
2022/11/18 00:34:26;;;;;;;374.27;146.63;;;;;;;9.55;100.00;98569.53;342671;28;964;-74
2022/11/18 00:34:36;;;;;;;373.63;147.37;;;;;;;9.56;100.00;98566.00;343787;28;1313;-74
2022/11/18 00:34:47;;;;;;;372.88;148.18;;;;;;;9.56;100.00;98567.75;343444;28;1834;-75
2022/11/18 00:34:57;;;;;;;371.77;149.23;;;;;;;9.56;100.00;98579.06;343321;28;1232;-74
2022/11/18 00:35:08;;;;;;;375.05;151.27;;;;;;;9.58;100.00;98574.59;343525;28;878;-74
2022/11/18 00:35:18;;;;;;;374.87;152.20;;;;;;;9.56;100.00;98568.59;342124;28;1325;-74
2022/11/18 00:35:28;;;;;;;370.83;147.35;;;;;;;9.57;100.00;98572.06;343735;28;904;-75
2022/11/18 00:35:39;;;;;;;367.37;145.37;;;;;;;9.55;100.00;98564.31;340796;29;942;-75
2022/11/18 00:35:53;;;;;;;370.00;147.03;;;;;;;9.55;100.00;98566.91;341401;28;1522;-75
2022/11/18 00:36:04;;;;;;;372.65;149.75;;;;;;;9.57;100.00;98567.69;339500;29;1390;-75
2022/11/18 00:36:15;;;;;;;374.15;149.13;;;;;;;9.58;100.00;98561.53;334290;29;1488;-75
2022/11/18 00:36:25;;;;;;;377.35;151.20;;;;;;;9.58;100.00;98564.13;338081;29;1973;-74
2022/11/18 00:36:36;;;;;;;376.30;152.70;;;;;;;9.60;100.00;98570.13;337228;29;1233;-75
2022/11/18 00:36:46;;;;;;;372.13;153.23;;;;;;;9.60;100.00;98575.34;334375;29;5098;-75
2022/11/18 00:36:57;;;;;;;372.77;152.27;;;;;;;9.60;100.00;98567.50;335114;29;5408;-75
2022/11/18 00:37:07;;;;;;;374.20;149.60;;;;;;;9.60;100.00;98570.13;335889;29;1974;-75
2022/11/18 00:37:17;;;;;;;375.63;150.50;;;;;;;9.60;100.00;98564.91;334230;29;1870;-75
2022/11/18 00:37:28;;;;;;;377.08;148.57;;;;;;;9.59;100.00;98568.44;333972;29;5670;-75
2022/11/18 00:37:38;;;;;;;379.33;151.10;;;;;;;9.60;100.00;98569.28;334385;29;972;-75
2022/11/18 00:37:49;;;;;;;377.63;149.90;;;;;;;9.60;100.00;98567.50;335590;29;1083;-74
2022/11/18 00:37:59;;;;;;;374.93;152.47;;;;;;;9.60;100.00;98569.28;337024;29;934;-73
2022/11/18 00:38:09;;;;;;;371.57;150.40;;;;;;;9.59;100.00;98563.22;333081;29;1587;-77
2022/11/18 00:38:20;;;;;;;372.85;151.50;;;;;;;9.61;100.00;98570.97;328979;29;1819;-74
2022/11/18 00:38:30;;;;;;;372.50;152.47;;;;;;;9.60;100.00;98566.66;327548;30;1928;-74
2022/11/18 00:38:41;;;;;;;370.38;153.48;;;;;;;9.60;100.00;98575.34;327255;30;3216;-74
2022/11/18 00:38:51;;;;;;;368.43;154.93;;;;;;;9.60;100.00;98571.91;325882;29;1956;-75
2022/11/18 00:39:01;;;;;;;367.83;152.20;;;;;;;9.60;100.00;98570.13;325688;30;1426;-75
2022/11/18 00:39:14;;;;;;;370.27;153.67;;;;;;;9.59;100.00;98565.81;323071;30;2086;-75
2022/11/18 00:39:25;;;;;;;370.77;153.65;;;;;;;9.59;100.00;98573.66;323359;30;1632;-74
2022/11/18 00:39:35;;;;;;;369.52;154.98;;;;;;;9.58;100.00;98571.97;325037;30;893;-74
2022/11/18 00:39:45;;;;;;;367.80;149.35;;;;;;;9.57;100.00;98567.69;327539;30;2116;-75
2022/11/18 00:39:56;;;;;;;369.47;149.43;;;;;;;9.58;100.00;98569.38;328070;30;1119;-75
2022/11/18 00:40:07;;;;;;;368.02;149.35;;;;;;;9.57;100.00;98562.47;326167;30;1799;-75
2022/11/18 00:40:17;;;;;;;367.83;151.38;;;;;;;9.57;100.00;98564.22;325150;30;1081;-75
2022/11/18 00:40:28;;;;;;;368.77;150.27;;;;;;;9.58;100.00;98569.38;323114;30;2114;-75
2022/11/18 00:40:38;;;;;;;368.13;148.25;;;;;;;9.59;100.00;98568.44;321534;30;2276;-75
2022/11/18 00:40:48;;;;;;;367.60;147.13;;;;;;;9.60;100.00;98569.28;320970;30;1299;-75
2022/11/18 00:40:59;;;;;;;364.90;144.02;;;;;;;9.59;100.00;98571.06;320976;30;1295;-75
2022/11/18 00:41:11;;;;;;;369.95;143.55;;;;;;;9.60;100.00;98575.34;322149;30;2316;-74
2022/11/18 00:41:22;;;;;;;367.26;141.68;;;;;;;9.58;100.00;98569.38;324591;30;2709;-74
2022/11/18 00:42:59;;;;;;;371.88;151.98;;;;;;;9.59;100.00;98571.06;317482;31;926;-75
2022/11/18 00:43:09;;;;;;;372.25;151.60;;;;;;;9.59;100.00;98573.66;313317;31;3367;-75
2022/11/18 00:43:20;;;;;;;373.47;151.83;;;;;;;9.59;100.00;98568.44;312702;31;2843;-74
2022/11/18 00:43:30;;;;;;;369.88;150.00;;;;;;;9.60;100.00;98575.34;312866;31;1447;-74
2022/11/18 00:43:41;;;;;;;368.20;150.00;;;;;;;9.60;100.00;98575.34;312568;31;3253;-74
2022/11/18 00:43:51;;;;;;;366.88;150.88;;;;;;;9.60;100.00;98569.28;311853;31;3042;-73
2022/11/18 00:44:01;;;;;;;370.30;150.97;;;;;;;9.61;100.00;98574.44;309609;31;1209;-75
2022/11/18 00:44:12;;;;;;;373.10;151.57;;;;;;;9.59;100.00;98565.81;308104;31;2254;-74
2022/11/18 00:44:22;;;;;;;373.60;150.97;;;;;;;9.58;100.00;98577.19;307039;31;3012;-75
2022/11/18 00:44:33;;;;;;;375.77;151.83;;;;;;;9.59;100.00;98570.22;308478;32;1214;-75
2022/11/18 00:44:43;;;;;;;376.03;148.43;;;;;;;9.57;100.00;98566.84;303540;32;3826;-74
2022/11/18 00:44:53;;;;;;;377.80;147.23;;;;;;;9.57;100.00;98574.66;305184;32;4134;-74
2022/11/18 00:45:04;;;;;;;373.85;146.10;;;;;;;9.57;100.00;98569.44;304557;32;4253;-74
2022/11/18 00:45:15;;;;;;;372.27;146.85;;;;;;;9.57;100.00;98572.91;303275;32;953;-75
2022/11/18 00:45:25;;;;;;;370.53;148.93;;;;;;;9.58;100.00;98576.34;302769;32;4273;-74
2022/11/18 00:45:35;;;;;;;372.33;149.32;;;;;;;9.58;100.00;98573.75;303357;32;4220;-74
2022/11/18 00:45:46;;;;;;;372.20;150.07;;;;;;;9.58;100.00;98573.75;306500;32;843;-76
2022/11/18 00:45:56;;;;;;;367.90;146.63;;;;;;;9.57;100.00;98570.28;301080;32;4744;-75
2022/11/18 00:46:08;;;;;;;369.50;148.90;;;;;;;9.59;100.00;98578.03;301503;32;3151;-74
2022/11/18 00:46:18;;;;;;;376.52;147.15;;;;;;;9.59;100.00;98571.06;300759;32;5418;-75
2022/11/18 00:46:29;;;;;;;378.13;146.30;;;;;;;9.60;100.00;98577.13;302080;32;3339;-74
2022/11/18 00:46:39;;;;;;;376.67;145.40;;;;;;;9.57;100.00;98575.50;299888;32;4025;-74
2022/11/18 00:46:50;;;;;;;368.83;146.93;;;;;;;9.58;100.00;98582.44;297308;32;5374;-74
2022/11/18 00:47:00;;;;;;;370.60;148.18;;;;;;;9.58;100.00;98577.19;301030;32;1927;-74
2022/11/18 00:47:10;;;;;;;368.27;148.07;;;;;;;9.58;100.00;98582.44;301667;32;5766;-74
2022/11/18 00:47:21;;;;;;;370.05;149.98;;;;;;;9.58;100.00;98576.34;299031;32;6042;-74
2022/11/18 00:47:31;;;;;;;370.87;153.20;;;;;;;9.57;100.00;98577.28;296176;33;1333;-74
2022/11/18 00:47:42;;;;;;;369.93;152.40;;;;;;;9.57;100.00;98570.28;296705;32;6087;-75
2022/11/18 00:47:52;;;;;;;367.90;149.52;;;;;;;9.57;100.00;98578.13;299393;32;5258;-75
2022/11/18 00:48:03;;;;;;;365.73;146.27;;;;;;;9.57;100.00;98575.50;302564;32;1655;-75
2022/11/18 00:48:13;;;;;;;363.17;144.52;;;;;;;9.57;100.00;98580.75;298730;32;5696;-75
2022/11/18 00:48:23;;;;;;;365.87;145.60;;;;;;;9.56;100.00;98576.44;291540;33;4153;-75
2022/11/18 00:48:34;;;;;;;367.40;146.73;;;;;;;9.57;100.00;98583.34;287475;33;7395;-75
2022/11/18 00:48:44;;;;;;;374.57;148.67;;;;;;;9.57;100.00;98578.13;288546;34;1511;-75
2022/11/18 00:48:55;;;;;;;375.08;150.60;;;;;;;9.57;100.00;98572.91;287783;34;6684;-75
2022/11/18 00:49:05;;;;;;;374.23;151.50;;;;;;;9.58;100.00;98577.19;286710;34;7447;-73
2022/11/18 00:49:15;;;;;;;372.50;151.75;;;;;;;9.59;100.00;98578.03;284688;34;1192;-73
2022/11/18 00:49:26;;;;;;;371.03;151.20;;;;;;;9.58;100.00;98574.59;283805;34;8156;-75
2022/11/18 00:49:36;;;;;;;376.00;151.23;;;;;;;9.58;100.00;98582.44;283868;34;8979;-75
2022/11/18 00:49:46;;;;;;;373.10;152.48;;;;;;;9.58;100.00;98577.19;285592;34;912;-74
2022/11/18 00:49:57;;;;;;;373.90;153.57;;;;;;;9.58;100.00;98579.81;282264;34;8891;-76
2022/11/18 00:50:08;;;;;;;370.45;153.18;;;;;;;9.57;100.00;98579.91;283102;34;8523;-75
2022/11/18 00:50:18;;;;;;;368.65;149.75;;;;;;;9.57;100.00;98585.97;285580;34;988;-75
2022/11/18 00:50:28;;;;;;;365.47;150.40;;;;;;;9.58;100.00;98577.19;285977;34;8042;-73
2022/11/18 00:50:39;;;;;;;365.75;146.55;;;;;;;9.59;100.00;98576.28;284087;34;5962;-74
2022/11/18 00:52:31;;;;;;;356.75;136.45;;;;;;;9.62;100.00;98580.50;2500494;27;20494;-75
2022/11/18 00:52:42;;;;;;;369.83;145.27;;;;;;;9.61;100.00;98577.03;351732;28;1219;-75
2022/11/18 00:52:52;;;;;;;367.98;143.18;;;;;;;9.61;100.00;98577.03;348872;28;1434;-75
2022/11/18 00:53:02;;;;;;;365.77;141.40;;;;;;;9.63;100.00;98580.41;348903;28;1311;-76
2022/11/18 00:53:13;;;;;;;366.58;142.25;;;;;;;9.61;100.00;98582.25;349019;28;1264;-76
2022/11/18 00:53:25;;;;;;;363.80;142.87;;;;;;;9.60;100.00;98570.13;348851;28;809;-75
2022/11/18 00:53:35;;;;;;;369.58;147.05;;;;;;;9.60;100.00;98580.56;347713;28;876;-75
2022/11/18 00:53:45;;;;;;;370.10;147.47;;;;;;;9.60;100.00;98574.50;346270;28;856;-74
2022/11/18 00:53:56;;;;;;;372.98;148.48;;;;;;;9.59;100.00;98571.06;346440;28;890;-75
2022/11/18 00:54:06;;;;;;;370.77;144.37;;;;;;;9.59;100.00;98572.81;349509;28;1633;-75
2022/11/18 00:54:17;;;;;;;376.48;145.70;;;;;;;9.57;100.00;98569.44;351878;28;1105;-75
2022/11/18 00:54:27;;;;;;;375.07;144.90;;;;;;;9.57;100.00;98575.50;353003;28;1334;-75
2022/11/18 00:54:37;;;;;;;370.67;144.85;;;;;;;9.56;100.00;98568.59;350215;28;1495;-75
2022/11/18 00:54:48;;;;;;;364.73;144.67;;;;;;;9.57;100.00;98570.28;347612;28;935;-74
2022/11/18 00:54:58;;;;;;;363.93;144.33;;;;;;;9.56;100.00;98572.97;347619;28;1054;-75
2022/11/18 00:55:09;;;;;;;365.20;145.23;;;;;;;9.57;100.00;98574.66;347235;28;1212;-74
2022/11/18 00:55:19;;;;;;;369.13;143.50;;;;;;;9.56;100.00;98576.44;347611;28;938;-75
2022/11/18 00:55:30;;;;;;;368.20;141.73;;;;;;;9.57;100.00;98570.28;343244;28;5333;-74
2022/11/18 00:55:41;;;;;;;371.20;144.25;;;;;;;9.57;100.00;98570.28;344131;28;5637;-75
2022/11/18 00:55:51;;;;;;;374.30;150.07;;;;;;;9.58;100.00;98568.53;347261;28;2223;-74
2022/11/18 00:56:02;;;;;;;376.27;152.37;;;;;;;9.58;100.00;98568.53;345862;28;5487;-75
2022/11/18 00:56:12;;;;;;;375.20;151.85;;;;;;;9.59;100.00;98567.59;346140;28;884;-75
2022/11/18 00:56:22;;;;;;;374.83;148.23;;;;;;;9.58;100.00;98569.38;346277;28;1197;-75
2022/11/18 00:56:33;;;;;;;374.70;147.57;;;;;;;9.58;100.00;98571.97;346240;28;1632;-75
2022/11/18 00:56:43;;;;;;;371.93;145.37;;;;;;;9.57;100.00;98572.91;348553;28;1030;-75
2022/11/18 00:56:53;;;;;;;365.10;144.37;;;;;;;9.58;100.00;98576.34;347547;28;1312;-75
2022/11/18 00:57:04;;;;;;;362.83;141.50;;;;;;;9.56;100.00;98573.81;347353;28;1999;-74
2022/11/18 00:57:14;;;;;;;361.53;140.50;;;;;;;9.58;100.00;98571.97;347472;28;1430;-74
2022/11/18 00:57:25;;;;;;;366.48;142.80;;;;;;;9.56;100.00;98568.59;344770;28;1275;-75
2022/11/18 00:57:35;;;;;;;370.47;143.50;;;;;;;9.55;100.00;98560.84;344848;28;2168;-75
2022/11/18 00:57:45;;;;;;;370.90;142.63;;;;;;;9.56;100.00;98562.53;342061;28;1223;-75
2022/11/18 00:57:56;;;;;;;367.37;142.93;;;;;;;9.55;100.00;98569.53;340820;29;821;-74
2022/11/18 00:58:06;;;;;;;368.42;144.88;;;;;;;9.56;100.00;98568.59;344361;28;1361;-75
2022/11/18 00:58:17;;;;;;;372.43;146.10;;;;;;;9.57;100.00;98575.50;343507;28;1440;-76
2022/11/18 00:58:28;;;;;;;375.60;146.07;;;;;;;9.57;100.00;98574.66;344419;28;1248;-75
2022/11/18 00:58:39;;;;;;;373.33;147.15;;;;;;;9.55;100.00;98572.13;344452;28;1434;-75
2022/11/18 00:58:49;;;;;;;371.30;147.60;;;;;;;9.57;100.00;98575.50;344754;28;1700;-74
2022/11/18 00:59:00;;;;;;;368.47;149.07;;;;;;;9.58;100.00;98571.13;343383;28;1407;-75